Time;durP1;ratioP1;P1;durP2;ratioP2;P2;SDS_P1;SDS_P2;PMS_P1;PMS_P2;Temp;Humidity;BMP_temperature;BMP_pressure;BME280_temperature;BME280_humidity;BME280_pressure;Samples;Min_cycle;Max_cycle;Signal;HPM_P1;HPM_P2
2023/07/05 00:02:17;;;;;;;13.73;7.95;;;;;;;20.91;100.00;-18589.19;5021968;28;20050;-75
2023/07/05 00:08:22;;;;;;;14.38;8.02;;;;;;;20.90;100.00;-18588.91;5015480;28;20147;-77
2023/07/05 00:10:47;;;;;;;14.57;7.95;;;;;;;21.05;99.82;-18592.72;5025091;28;20037;-77
2023/07/05 00:13:19;;;;;;;12.77;8.00;;;;;;;20.97;100.00;-18590.69;5037763;28;20041;-75
2023/07/05 00:16:08;;;;;;;17.40;7.50;;;;;;;20.91;100.00;-18589.19;5015957;28;20049;-77
2023/07/05 00:18:49;;;;;;;12.35;8.00;;;;;;;20.93;99.93;-18589.59;5001910;28;20057;-77
2023/07/05 00:22:05;;;;;;;14.55;8.25;;;;;;;20.99;98.33;-18591.22;5005543;28;20053;-77
2023/07/05 00:24:34;;;;;;;13.55;7.68;;;;;;;20.90;100.00;-18588.78;4987077;28;20135;-78
2023/07/05 00:27:14;;;;;;;12.00;7.32;;;;;;;20.87;100.00;-18588.09;4998396;28;20074;-76
2023/07/05 00:29:58;;;;;;;11.45;7.32;;;;;;;20.92;100.00;-18589.31;5012921;28;20140;-75
2023/07/05 00:32:29;;;;;;;11.32;7.60;;;;;;;20.90;100.00;-18588.91;5012292;28;20535;-76
2023/07/05 00:35:32;;;;;;;15.20;7.95;;;;;;;21.06;100.00;-18593.00;5008324;28;20059;-78
2023/07/05 00:38:34;;;;;;;17.02;7.30;;;;;;;20.89;100.00;-18588.63;5029195;28;20061;-76
2023/07/05 00:41:33;;;;;;;11.07;7.32;;;;;;;20.88;100.00;-18588.38;5026010;28;20045;-78
2023/07/05 00:45:12;;;;;;;13.25;8.10;;;;;;;20.61;100.00;-18581.03;5032600;28;20038;-78
2023/07/05 00:48:17;;;;;;;14.50;8.23;;;;;;;20.62;100.00;-18581.44;4949377;28;20042;-77
2023/07/05 00:54:12;;;;;;;16.00;8.93;;;;;;;20.56;100.00;-18579.66;4961519;28;20212;-78
2023/07/05 00:57:17;;;;;;;14.10;8.77;;;;;;;20.44;100.00;-18576.66;4969144;28;20645;-78
2023/07/05 01:00:15;;;;;;;17.35;9.75;;;;;;;20.39;100.00;-18575.16;5005259;28;20045;-78
2023/07/05 01:02:44;;;;;;;14.77;9.70;;;;;;;20.28;100.00;-18572.31;5017061;28;20064;-76
2023/07/05 01:05:17;;;;;;;16.02;9.27;;;;;;;20.25;100.00;-18571.50;5031293;28;20053;-78
2023/07/05 01:07:48;;;;;;;16.55;9.55;;;;;;;20.37;100.00;-18574.63;5029131;28;20049;-78
2023/07/05 01:10:25;;;;;;;15.38;9.98;;;;;;;20.28;100.00;-18572.44;5016229;28;20050;-76
2023/07/05 01:13:15;;;;;;;17.02;10.65;;;;;;;20.34;100.00;-18573.94;5015059;28;20065;-76
2023/07/05 01:16:17;;;;;;;15.57;9.90;;;;;;;19.95;100.00;-18563.59;5024161;28;20045;-77
2023/07/05 01:22:35;;;;;;;16.10;11.50;;;;;;;19.93;100.00;-18563.06;5013461;28;20045;-78
2023/07/05 01:25:44;;;;;;;17.90;11.15;;;;;;;19.87;100.00;-18561.41;5016842;28;20046;-76
2023/07/05 01:28:25;;;;;;;18.77;11.50;;;;;;;19.83;100.00;-18560.34;5037050;28;20619;-75
2023/07/05 01:31:13;;;;;;;18.17;12.10;;;;;;;19.82;100.00;-18560.06;5025477;28;20043;-78
2023/07/05 01:34:16;;;;;;;18.08;12.50;;;;;;;19.71;100.00;-18557.06;5031408;28;20045;-77
2023/07/05 01:36:41;;;;;;;18.17;12.27;;;;;;;19.70;100.00;-18556.78;5025201;28;20053;-77
2023/07/05 01:39:07;;;;;;;18.92;12.10;;;;;;;19.63;100.00;-18555.00;5019994;28;20504;-77
2023/07/05 01:41:38;;;;;;;19.08;11.90;;;;;;;19.67;100.00;-18555.97;5010209;28;20056;-76
2023/07/05 01:44:40;;;;;;;23.05;12.30;;;;;;;19.63;100.00;-18554.88;5012279;28;20128;-76
2023/07/05 01:48:03;;;;;;;16.55;11.68;;;;;;;19.66;100.00;-18555.84;5028111;28;20049;-77
2023/07/05 01:51:02;;;;;;;16.67;11.25;;;;;;;19.61;100.00;-18554.59;4984159;28;20041;-76
2023/07/05 01:53:56;;;;;;;18.00;10.90;;;;;;;19.65;100.00;-18555.41;4963782;28;20050;-74
2023/07/05 01:57:18;;;;;;;14.30;9.82;;;;;;;19.67;100.00;-18555.97;4983285;28;20065;-77
2023/07/05 01:59:56;;;;;;;16.52;10.38;;;;;;;19.63;100.00;-18555.00;5002745;28;20103;-77
2023/07/05 02:02:51;;;;;;;14.90;10.00;;;;;;;19.72;100.00;-18557.47;5030081;28;20516;-77
2023/07/05 02:05:37;;;;;;;17.85;9.77;;;;;;;19.78;100.00;-18558.97;5011401;28;20080;-77
2023/07/05 02:08:02;;;;;;;16.27;10.02;;;;;;;19.83;100.00;-18560.34;5027265;28;21051;-78
2023/07/05 02:10:32;;;;;;;13.95;9.57;;;;;;;19.85;100.00;-18560.88;5028541;28;20045;-75
2023/07/05 02:13:33;;;;;;;12.88;9.00;;;;;;;19.85;100.00;-18560.88;5034273;28;20091;-77
2023/07/05 02:16:10;;;;;;;14.05;9.80;;;;;;;19.90;100.00;-18562.22;4966135;28;20050;-77
2023/07/05 02:18:38;;;;;;;14.07;8.95;;;;;;;19.90;100.00;-18562.09;4959034;28;20122;-76
2023/07/05 02:21:15;;;;;;;14.25;9.27;;;;;;;19.94;100.00;-18563.31;4966497;28;20661;-76
2023/07/05 02:23:40;;;;;;;12.10;9.05;;;;;;;19.94;100.00;-18563.19;4966229;28;20055;-76
2023/07/05 02:26:21;;;;;;;15.20;9.07;;;;;;;20.01;100.00;-18565.09;4965228;28;20093;-76
2023/07/05 02:28:49;;;;;;;12.70;8.93;;;;;;;20.04;100.00;-18566.03;4971937;28;20047;-78
2023/07/05 02:31:15;;;;;;;13.40;8.15;;;;;;;19.99;100.00;-18564.69;5012714;28;20091;-77
2023/07/05 02:33:44;;;;;;;13.13;7.85;;;;;;;20.11;100.00;-18567.69;5028382;28;20616;-76
2023/07/05 02:36:24;;;;;;;13.32;8.40;;;;;;;20.26;100.00;-18571.91;5033853;28;20048;-76
2023/07/05 02:38:54;;;;;;;11.27;7.47;;;;;;;20.29;100.00;-18572.72;5023156;28;20033;-76
2023/07/05 02:41:20;;;;;;;10.60;7.60;;;;;;;20.39;100.00;-18575.31;5028689;28;20045;-76
2023/07/05 02:43:45;;;;;;;10.90;7.63;;;;;;;20.52;100.00;-18578.72;5026826;28;20042;-76
2023/07/05 02:46:10;;;;;;;10.05;7.15;;;;;;;20.43;100.00;-18576.25;5017153;28;20056;-76
2023/07/05 02:48:36;;;;;;;9.35;6.72;;;;;;;20.33;100.00;-18573.66;5008648;28;20505;-76
2023/07/05 02:51:07;;;;;;;10.48;6.15;;;;;;;20.38;100.00;-18575.03;5027108;28;20451;-77
2023/07/05 02:53:32;;;;;;;9.93;6.90;;;;;;;20.37;100.00;-18574.75;5027003;28;20107;-76
2023/07/05 02:56:10;;;;;;;7.80;5.32;;;;;;;20.56;100.00;-18579.66;5023376;28;20049;-76
2023/07/05 02:58:50;;;;;;;9.57;6.53;;;;;;;20.60;100.00;-18580.75;5028241;28;20067;-75
2023/07/05 03:01:19;;;;;;;8.50;5.97;;;;;;;20.51;100.00;-18578.56;5021166;28;20060;-76
2023/07/05 03:03:47;;;;;;;8.93;5.90;;;;;;;20.63;100.00;-18581.69;5029379;28;20041;-78
2023/07/05 03:06:12;;;;;;;9.10;6.00;;;;;;;20.73;100.00;-18584.28;5024949;28;20064;-78
2023/07/05 03:08:41;;;;;;;9.07;5.60;;;;;;;20.89;100.00;-18588.63;5028452;28;20029;-77
2023/07/05 03:11:06;;;;;;;9.93;6.05;;;;;;;21.02;100.00;-18591.91;5007904;28;20045;-79
2023/07/05 03:14:07;;;;;;;8.13;4.85;;;;;;;21.13;100.00;-18594.91;5011317;28;20046;-76
2023/07/05 03:16:35;;;;;;;7.97;5.25;;;;;;;20.97;100.00;-18590.69;4938044;28;20093;-77
2023/07/05 03:19:03;;;;;;;9.17;5.60;;;;;;;20.87;100.00;-18588.09;4949686;28;20054;-77
2023/07/05 03:21:28;;;;;;;6.43;5.20;;;;;;;20.87;100.00;-18587.97;4971292;28;20050;-79
2023/07/05 03:23:56;;;;;;;7.75;5.00;;;;;;;20.87;100.00;-18587.97;4968807;28;20182;-77
2023/07/05 03:26:31;;;;;;;7.55;4.57;;;;;;;20.89;100.00;-18588.63;4994188;28;20044;-80
2023/07/05 03:29:05;;;;;;;8.27;5.25;;;;;;;20.80;100.00;-18586.19;5010200;28;20579;-78
2023/07/05 03:31:31;;;;;;;5.70;3.60;;;;;;;20.69;100.00;-18583.34;5020498;28;20068;-79
2023/07/05 03:34:07;;;;;;;6.90;3.63;;;;;;;20.75;100.00;-18584.69;5031809;28;22383;-77
2023/07/05 03:36:38;;;;;;;6.32;3.70;;;;;;;20.57;100.00;-18579.94;5005912;28;20125;-80
2023/07/05 03:39:34;;;;;;;5.20;3.60;;;;;;;20.59;100.00;-18580.47;5014545;28;20053;-79
2023/07/05 03:42:12;;;;;;;5.97;2.85;;;;;;;20.66;100.00;-18582.38;5012371;28;20521;-79
2023/07/05 03:44:43;;;;;;;3.97;2.22;;;;;;;20.20;100.00;-18570.28;5021848;28;20081;-78
2023/07/05 03:47:47;;;;;;;5.32;2.28;;;;;;;20.28;100.00;-18572.31;5000237;28;20656;-77
2023/07/05 03:50:18;;;;;;;5.55;2.50;;;;;;;20.24;100.00;-18571.22;4964806;28;20060;-78
2023/07/05 03:52:43;;;;;;;4.45;2.08;;;;;;;20.26;100.00;-18571.75;4969367;28;20101;-76
2023/07/05 03:55:15;;;;;;;4.03;2.38;;;;;;;20.35;100.00;-18574.22;4970136;28;20082;-79
2023/07/05 03:57:46;;;;;;;5.35;2.20;;;;;;;20.24;100.00;-18571.22;4974275;28;20049;-77
2023/07/05 04:01:06;;;;;;;4.13;1.85;;;;;;;20.09;100.00;-18567.28;4947662;28;20058;-78
2023/07/05 04:04:01;;;;;;;3.38;1.70;;;;;;;20.16;100.00;-18569.03;4916692;28;20062;-78
2023/07/05 04:09:29;;;;;;;3.80;1.77;;;;;;;19.64;100.00;-18555.16;4983658;28;20051;-78
2023/07/05 04:12:47;;;;;;;3.58;1.65;;;;;;;19.27;100.00;-18545.47;4974529;28;20222;-78
2023/07/05 04:15:16;;;;;;;5.80;2.00;;;;;;;19.07;100.00;-18540.16;4960825;28;20128;-79
2023/07/05 04:18:25;;;;;;;3.38;1.60;;;;;;;19.16;100.00;-18542.47;4971604;28;20308;-79
2023/07/05 04:21:02;;;;;;;5.50;1.75;;;;;;;18.95;100.00;-18536.91;4968997;28;20092;-78
2023/07/05 04:23:41;;;;;;;4.75;2.00;;;;;;;19.06;100.00;-18539.75;5026793;28;20514;-80
2023/07/05 04:26:27;;;;;;;3.47;1.80;;;;;;;19.01;100.00;-18538.53;5023667;28;20045;-80
2023/07/05 04:29:04;;;;;;;4.68;2.40;;;;;;;18.96;100.00;-18537.16;5024552;28;20048;-77
2023/07/05 04:32:04;;;;;;;3.88;1.95;;;;;;;19.09;100.00;-18540.72;5025928;28;20485;-78
2023/07/05 04:34:29;;;;;;;5.00;2.15;;;;;;;18.76;100.00;-18531.72;5021785;28;20118;-77
2023/07/05 04:36:55;;;;;;;3.70;2.22;;;;;;;18.78;100.00;-18532.25;5024767;28;20046;-79
2023/07/05 04:39:23;;;;;;;4.82;2.47;;;;;;;18.76;100.00;-18531.72;5026270;28;20053;-78
2023/07/05 04:41:55;;;;;;;4.00;2.20;;;;;;;18.72;100.00;-18530.75;5033655;28;20144;-77
2023/07/05 04:44:29;;;;;;;4.38;2.35;;;;;;;18.64;100.00;-18528.72;5025206;28;20071;-77
2023/07/05 04:46:55;;;;;;;5.57;2.20;;;;;;;18.65;100.00;-18528.84;5032920;28;20034;-77
2023/07/05 04:49:51;;;;;;;5.13;2.70;;;;;;;18.69;100.00;-18529.94;5026917;28;20104;-79
2023/07/05 04:52:16;;;;;;;5.20;2.60;;;;;;;18.75;100.00;-18531.44;5025321;28;20107;-79
2023/07/05 04:55:13;;;;;;;5.07;2.90;;;;;;;18.72;100.00;-18530.75;5031720;28;20493;-78
2023/07/05 04:58:06;;;;;;;5.05;2.33;;;;;;;18.79;100.00;-18532.66;5015300;28;20079;-77
2023/07/05 05:01:09;;;;;;;6.32;2.75;;;;;;;18.65;100.00;-18528.97;5013383;28;20053;-78
2023/07/05 05:03:41;;;;;;;5.32;2.83;;;;;;;18.40;100.00;-18522.16;5008318;28;20052;-78
2023/07/05 05:06:07;;;;;;;6.78;3.17;;;;;;;18.37;100.00;-18521.34;5008169;28;20045;-78
2023/07/05 05:08:32;;;;;;;7.05;3.30;;;;;;;18.54;100.00;-18525.97;5007249;28;20057;-78
2023/07/05 05:11:16;;;;;;;5.78;3.10;;;;;;;18.69;100.00;-18530.06;5032218;28;20044;-78
2023/07/05 05:14:20;;;;;;;8.35;3.22;;;;;;;18.65;100.00;-18528.97;5018724;28;20046;-77
2023/07/05 05:16:48;;;;;;;5.10;3.20;;;;;;;18.71;100.00;-18530.47;4999175;28;20041;-78
2023/07/05 05:19:20;;;;;;;7.38;3.55;;;;;;;18.71;100.00;-18530.47;5009693;28;20053;-77
2023/07/05 05:22:13;;;;;;;6.30;3.35;;;;;;;18.65;100.00;-18528.97;5004449;28;20041;-79
2023/07/05 05:25:10;;;;;;;6.88;3.40;;;;;;;18.74;100.00;-18531.16;5019159;28;20076;-80
2023/07/05 05:27:41;;;;;;;5.85;3.17;;;;;;;18.75;100.00;-18531.56;5029158;28;20050;-77
2023/07/05 05:30:25;;;;;;;8.27;3.40;;;;;;;18.54;100.00;-18525.84;5033371;28;20037;-78
2023/07/05 05:32:50;;;;;;;5.28;3.30;;;;;;;18.52;100.00;-18525.31;5027019;28;20713;-77
2023/07/05 05:35:22;;;;;;;7.50;2.65;;;;;;;18.35;100.00;-18520.81;5031181;28;20552;-79
2023/07/05 05:37:57;;;;;;;5.32;2.92;;;;;;;18.46;100.00;-18523.94;5029791;28;20079;-77
2023/07/05 05:40:28;;;;;;;4.78;2.55;;;;;;;18.38;100.00;-18521.75;5030542;28;20527;-77
2023/07/05 05:43:16;;;;;;;9.38;3.28;;;;;;;18.54;100.00;-18525.97;5036068;28;20041;-78
2023/07/05 05:46:18;;;;;;;6.43;3.33;;;;;;;18.56;100.00;-18526.38;5026817;28;20041;-77
2023/07/05 05:48:50;;;;;;;5.35;3.20;;;;;;;18.52;100.00;-18525.44;5025365;28;20073;-77
2023/07/05 05:54:53;;;;;;;7.45;3.47;;;;;;;18.50;100.00;-18524.91;5016912;28;20099;-78
2023/07/05 05:57:18;;;;;;;6.72;2.90;;;;;;;18.60;100.00;-18527.63;5037165;28;20046;-77
2023/07/05 05:59:43;;;;;;;7.18;3.15;;;;;;;18.57;100.00;-18526.66;5028580;28;20094;-77
2023/07/05 06:02:09;;;;;;;5.85;2.53;;;;;;;18.62;100.00;-18528.16;5030446;28;20168;-80
2023/07/05 06:04:35;;;;;;;6.95;2.50;;;;;;;18.60;100.00;-18527.63;5024500;28;20049;-80
2023/07/05 06:07:00;;;;;;;5.50;2.80;;;;;;;18.77;100.00;-18532.13;5017486;28;20057;-77
2023/07/05 06:09:39;;;;;;;7.45;3.17;;;;;;;18.80;100.00;-18532.81;5009782;28;20054;-78
2023/07/05 06:12:16;;;;;;;6.10;3.22;;;;;;;18.90;100.00;-18535.53;5011911;28;20053;-78
2023/07/05 06:15:14;;;;;;;5.00;2.53;;;;;;;18.91;100.00;-18535.81;5004691;22;20050;-77
2023/07/05 06:17:45;;;;;;;7.97;3.05;;;;;;;19.09;100.00;-18540.72;4972938;28;20060;-77
2023/07/05 06:20:46;;;;;;;8.85;3.40;;;;;;;18.90;100.00;-18535.53;4982350;28;20058;-77
2023/07/05 06:29:55;;;;;;;5.43;3.05;;;;;;;18.70;98.58;-18530.34;4993624;28;20099;-80
2023/07/05 06:32:21;;;;;;;7.63;3.63;;;;;;;18.87;96.75;-18534.72;4993593;28;20054;-78
2023/07/05 06:35:11;;;;;;;6.20;2.55;;;;;;;19.04;96.47;-18539.34;4998599;28;20038;-77
2023/07/05 06:38:01;;;;;;;6.65;2.53;;;;;;;18.88;96.69;-18535.00;5001802;28;20472;-79
2023/07/05 06:40:29;;;;;;;7.75;2.70;;;;;;;18.94;97.24;-18536.75;5019427;28;20589;-80
2023/07/05 06:46:19;;;;;;;6.15;2.90;;;;;;;18.71;97.11;-18530.63;4999518;28;20104;-78
2023/07/05 06:49:10;;;;;;;3.67;2.20;;;;;;;18.78;95.91;-18532.25;5002588;28;20038;-79
2023/07/05 06:55:40;;;;;;;5.70;2.83;;;;;;;18.89;94.60;-18535.25;5001064;28;20096;-79
2023/07/05 06:58:06;;;;;;;4.35;2.70;;;;;;;18.96;93.32;-18537.16;4957171;28;20066;-80
2023/07/05 07:00:55;;;;;;;7.38;2.60;;;;;;;18.99;93.42;-18538.00;4978087;28;20046;-79
2023/07/05 07:03:23;;;;;;;6.32;2.63;;;;;;;18.88;93.22;-18535.00;4916584;28;20054;-79
2023/07/05 07:06:08;;;;;;;5.88;2.20;;;;;;;19.01;94.27;-18538.53;4971338;28;20075;-79
2023/07/05 07:09:18;;;;;;;;;;;;;;;;;;;;;
2023/07/05 07:11:56;;;;;;;7.75;2.67;;;;;;;18.80;95.91;-18532.81;4950414;28;20074;-78
2023/07/05 07:14:22;;;;;;;6.63;2.55;;;;;;;18.87;94.82;-18534.84;4984104;28;20050;-79
2023/07/05 07:16:59;;;;;;;6.97;2.58;;;;;;;18.77;94.45;-18532.00;4975960;28;20038;-78
2023/07/05 07:39:49;;;;;;;4.72;2.65;;;;;;;18.75;97.48;-18531.44;5040296;28;20067;-77
2023/07/05 07:45:36;;;;;;;3.55;2.00;;;;;;;18.68;95.03;-18529.66;5053958;28;20081;-79
2023/07/05 07:48:02;;;;;;;5.82;2.17;;;;;;;18.75;93.48;-18531.44;5065043;28;20036;-78
2023/07/05 07:50:28;;;;;;;7.20;2.42;;;;;;;18.79;94.73;-18532.66;5076071;28;20048;-78
2023/07/05 07:52:53;;;;;;;5.53;2.10;;;;;;;18.81;96.40;-18533.22;5075007;28;20498;-79
2023/07/05 07:55:19;;;;;;;6.00;2.60;;;;;;;18.67;97.35;-18529.38;5074334;28;20032;-78
2023/07/05 07:57:45;;;;;;;5.30;2.17;;;;;;;18.83;96.28;-18533.63;5074606;28;20039;-77
2023/07/05 08:00:11;;;;;;;5.13;2.53;;;;;;;18.68;93.76;-18529.66;5071427;28;20048;-78
2023/07/05 08:02:37;;;;;;;5.25;2.20;;;;;;;18.70;93.62;-18530.34;5073971;28;20075;-77
2023/07/05 08:05:11;;;;;;;5.93;2.15;;;;;;;18.79;92.93;-18532.66;5052485;28;20064;-78
2023/07/05 08:07:36;;;;;;;6.10;2.00;;;;;;;18.64;91.28;-18528.72;5061967;28;20044;-78
2023/07/05 08:10:02;;;;;;;3.13;1.80;;;;;;;18.63;90.84;-18528.31;5054873;28;20043;-79
2023/07/05 08:12:27;;;;;;;5.53;2.35;;;;;;;18.56;89.44;-18526.38;5073142;28;20932;-78
2023/07/05 08:14:53;;;;;;;4.75;2.20;;;;;;;18.56;90.33;-18526.38;5068128;28;20036;-78
2023/07/05 08:17:20;;;;;;;4.18;1.98;;;;;;;18.70;90.13;-18530.22;5071354;28;20086;-79
2023/07/05 08:19:45;;;;;;;3.90;2.05;;;;;;;18.58;91.08;-18526.94;5071781;28;20398;-79
2023/07/05 08:22:10;;;;;;;4.65;1.80;;;;;;;18.52;92.70;-18525.44;5073850;28;20048;-78
2023/07/05 08:24:36;;;;;;;3.78;2.22;;;;;;;18.45;93.95;-18523.66;5072346;28;20126;-78
2023/07/05 08:27:01;;;;;;;3.08;1.70;;;;;;;18.36;94.83;-18521.22;5073001;28;20514;-77
2023/07/05 08:29:26;;;;;;;8.65;2.35;;;;;;;18.42;95.31;-18522.72;5070133;28;20060;-78
2023/07/05 08:31:52;;;;;;;6.30;2.38;;;;;;;18.43;93.38;-18523.13;5071039;28;20047;-78
2023/07/05 08:34:17;;;;;;;4.40;1.67;;;;;;;18.70;92.00;-18530.34;5071916;28;20047;-77
2023/07/05 08:36:43;;;;;;;4.38;1.98;;;;;;;18.65;89.57;-18528.84;5072741;28;20055;-80
2023/07/05 08:39:11;;;;;;;4.78;2.13;;;;;;;18.80;87.18;-18532.81;5054990;28;20036;-78
2023/07/05 08:41:45;;;;;;;3.50;1.67;;;;;;;18.69;85.25;-18529.94;5072814;28;20112;-79
2023/07/05 08:44:38;;;;;;;3.72;1.80;;;;;;;18.88;84.34;-18535.13;5069931;28;20659;-78
2023/07/05 08:47:12;;;;;;;5.68;2.20;;;;;;;18.80;82.95;-18532.81;5069852;28;20649;-78
2023/07/05 08:49:44;;;;;;;5.03;1.80;;;;;;;19.03;81.63;-18539.06;5059208;28;20127;-79
2023/07/05 08:52:49;;;;;;;4.13;2.00;;;;;;;19.02;81.38;-18538.81;5073451;28;20052;-78
2023/07/05 08:55:46;;;;;;;6.68;2.00;;;;;;;18.94;82.34;-18536.63;5049746;28;20112;-78
2023/07/05 08:58:25;;;;;;;4.25;1.60;;;;;;;18.95;83.00;-18536.91;4993783;28;20108;-78
2023/07/05 09:01:40;;;;;;;4.57;1.60;;;;;;;18.87;84.96;-18534.72;5054981;28;20297;-77
2023/07/05 09:04:33;;;;;;;4.88;1.80;;;;;;;18.71;85.30;-18530.47;5059210;28;20630;-78
2023/07/05 09:07:37;;;;;;;3.10;1.50;;;;;;;18.65;85.70;-18528.84;5066794;28;20076;-79
2023/07/05 09:10:40;;;;;;;4.35;1.63;;;;;;;18.78;85.61;-18532.41;5071489;28;20097;-77
2023/07/05 09:13:15;;;;;;;5.28;1.90;;;;;;;18.74;87.31;-18531.31;5076706;28;20036;-78
2023/07/05 09:16:00;;;;;;;5.47;1.92;;;;;;;18.68;90.36;-18529.81;5078442;28;20052;-78
2023/07/05 09:19:08;;;;;;;4.07;2.08;;;;;;;18.77;91.05;-18532.13;5060982;28;20040;-79
2023/07/05 09:28:20;;;;;;;6.20;2.42;;;;;;;18.83;90.72;-18533.63;5055317;28;20082;-78
2023/07/05 09:30:46;;;;;;;5.95;2.35;;;;;;;18.88;89.62;-18535.00;5075904;28;20032;-79
2023/07/05 09:33:50;;;;;;;4.57;2.28;;;;;;;18.86;87.44;-18534.44;5079297;28;20105;-78
2023/07/05 09:36:31;;;;;;;5.00;2.78;;;;;;;19.18;85.29;-18543.03;5075729;28;20633;-77
2023/07/05 09:39:25;;;;;;;6.22;2.55;;;;;;;19.23;84.18;-18544.25;5075072;28;20447;-78
2023/07/05 09:42:35;;;;;;;4.45;2.17;;;;;;;19.40;84.53;-18548.88;5094735;28;20556;-79
2023/07/05 09:45:01;;;;;;;4.80;2.47;;;;;;;19.49;83.06;-18551.34;4981662;28;20049;-79
2023/07/05 09:47:26;;;;;;;8.75;2.75;;;;;;;19.54;83.49;-18552.69;5017555;28;20051;-78
2023/07/05 09:49:54;;;;;;;4.63;2.38;;;;;;;19.41;86.01;-18549.16;5017266;28;20077;-79
2023/07/05 09:52:25;;;;;;;4.70;2.70;;;;;;;19.65;85.93;-18555.56;5015615;28;20041;-77
2023/07/05 09:55:02;;;;;;;6.40;2.70;;;;;;;19.56;84.86;-18553.25;5014176;28;20073;-78
2023/07/05 09:57:38;;;;;;;6.90;2.70;;;;;;;19.48;86.49;-18550.94;5000403;28;20053;-76
2023/07/05 10:00:35;;;;;;;7.38;2.90;;;;;;;19.89;84.58;-18561.81;5013080;28;20042;-77
2023/07/05 10:03:41;;;;;;;8.48;2.40;;;;;;;20.23;80.92;-18571.09;5027490;28;20071;-78
2023/07/05 10:06:11;;;;;;;8.02;2.80;;;;;;;20.08;79.79;-18566.88;5075883;28;20047;-78
2023/07/05 10:09:12;;;;;;;7.50;2.80;;;;;;;20.17;79.73;-18569.31;5077016;28;20732;-79
2023/07/05 10:12:05;;;;;;;5.68;2.75;;;;;;;20.18;77.22;-18569.72;5090250;28;21611;-79
2023/07/05 10:14:34;;;;;;;4.65;2.30;;;;;;;20.19;73.29;-18570.00;5053722;28;20043;-80
2023/07/05 10:17:08;;;;;;;7.47;2.15;;;;;;;20.10;72.50;-18567.41;5080313;28;20052;-78
2023/07/05 10:19:55;;;;;;;5.95;2.10;;;;;;;20.17;72.57;-18569.31;5080596;28;20583;-77
2023/07/05 10:22:40;;;;;;;6.65;2.45;;;;;;;20.19;73.50;-18569.84;5098015;28;20060;-77
2023/07/05 10:25:38;;;;;;;7.95;2.00;;;;;;;20.19;72.79;-18569.84;5081257;28;20139;-78
2023/07/05 10:31:37;;;;;;;6.00;2.08;;;;;;;19.93;84.62;-18563.06;5081372;28;20109;-80
2023/07/05 10:36:56;;;;;;;4.90;1.25;;;;;;;19.06;100.00;-18539.91;5078572;28;20075;-79
2023/07/05 10:39:26;;;;;;;5.05;1.52;;;;;;;18.67;100.00;-18529.53;5060817;28;20048;-79
2023/07/05 10:42:01;;;;;;;5.90;2.08;;;;;;;18.66;100.00;-18529.25;5093030;28;20764;-80
2023/07/05 10:44:36;;;;;;;4.72;2.65;;;;;;;18.47;100.00;-18524.06;5080225;28;20044;-78
2023/07/05 10:47:05;;;;;;;4.57;2.30;;;;;;;18.28;100.00;-18519.03;5077967;28;20041;-77
2023/07/05 10:49:35;;;;;;;5.47;2.50;;;;;;;18.07;100.00;-18513.44;5077616;28;20149;-80
2023/07/05 10:52:15;;;;;;;6.53;2.35;;;;;;;17.90;100.00;-18508.81;5078898;28;20047;-78
2023/07/05 10:55:02;;;;;;;6.00;2.65;;;;;;;17.79;100.00;-18505.94;5078562;28;20794;-80
2023/07/05 10:57:49;;;;;;;5.75;2.60;;;;;;;17.65;100.00;-18502.25;5083055;28;20456;-77
2023/07/05 11:03:41;;;;;;;5.20;2.58;;;;;;;17.43;100.00;-18496.25;5078564;28;20574;-80
2023/07/05 11:10:00;;;;;;;8.35;3.13;;;;;;;17.30;100.00;-18492.81;4986126;28;20096;-76
2023/07/05 11:15:47;;;;;;;8.73;4.65;;;;;;;17.22;100.00;-18490.66;4983898;28;20048;-78
2023/07/05 11:18:16;;;;;;;11.75;4.32;;;;;;;17.35;100.00;-18494.34;5005760;28;20042;-78
2023/07/05 11:20:41;;;;;;;7.57;3.50;;;;;;;17.17;100.00;-18489.41;5075406;28;20147;-77
2023/07/05 11:23:11;;;;;;;7.03;3.50;;;;;;;17.15;100.00;-18488.88;5078011;28;20046;-77
2023/07/05 11:26:07;;;;;;;6.75;3.92;;;;;;;17.12;100.00;-18488.06;5077881;28;20045;-80
2023/07/05 11:32:08;;;;;;;8.18;3.88;;;;;;;16.95;100.00;-18483.41;5023283;28;20052;-76
2023/07/05 11:35:13;;;;;;;8.18;3.72;;;;;;;16.91;100.00;-18482.44;5034823;28;20041;-77
2023/07/05 11:38:30;;;;;;;9.05;4.32;;;;;;;17.13;100.00;-18488.31;5034458;28;20545;-77
2023/07/05 11:40:58;;;;;;;7.07;4.03;;;;;;;17.22;100.00;-18490.66;4973587;28;20054;-78
2023/07/05 11:44:00;;;;;;;7.68;3.55;;;;;;;17.25;100.00;-18491.47;5037769;28;20476;-79
2023/07/05 11:53:32;;;;;;;11.35;4.70;;;;;;;17.39;100.00;-18495.16;4993874;28;20140;-78
2023/07/05 11:55:59;;;;;;;11.98;4.35;;;;;;;17.55;100.00;-18499.66;5016459;28;20045;-78
2023/07/05 11:58:29;;;;;;;8.27;4.65;;;;;;;17.72;100.00;-18504.16;5019133;28;20439;-77
2023/07/05 12:01:01;;;;;;;9.20;4.55;;;;;;;17.71;100.00;-18503.88;5047149;28;20037;-78
2023/07/05 12:03:41;;;;;;;9.07;4.88;;;;;;;17.94;100.00;-18509.88;5075632;28;20270;-79
2023/07/05 12:06:07;;;;;;;9.10;3.38;;;;;;;18.01;100.00;-18511.81;5074788;28;20048;-78
2023/07/05 12:08:37;;;;;;;9.00;3.40;;;;;;;18.33;100.00;-18520.25;5075808;28;20051;-79
2023/07/05 12:11:03;;;;;;;8.52;3.00;;;;;;;18.51;100.00;-18525.16;5077322;28;20048;-80
2023/07/05 12:13:34;;;;;;;10.25;2.88;;;;;;;18.74;100.00;-18531.16;5076830;28;20062;-76
2023/07/05 12:16:03;;;;;;;6.88;2.22;;;;;;;18.91;100.00;-18535.81;5076979;28;20039;-78
2023/07/05 12:18:30;;;;;;;3.55;1.15;;;;;;;19.27;99.66;-18545.34;5078215;28;20103;-79
2023/07/05 12:20:58;;;;;;;4.50;1.50;;;;;;;19.78;99.49;-18558.97;5081238;28;20649;-76
2023/07/05 12:23:25;;;;;;;5.72;2.53;;;;;;;19.79;100.00;-18559.25;5082026;28;20390;-77
2023/07/05 12:25:53;;;;;;;6.95;2.90;;;;;;;19.46;100.00;-18550.53;5081502;28;20050;-76
2023/07/05 12:28:25;;;;;;;6.25;3.00;;;;;;;19.26;100.00;-18545.22;5083868;28;20036;-80
2023/07/05 12:30:58;;;;;;;7.30;3.47;;;;;;;19.16;100.00;-18542.63;5083452;28;20088;-76
2023/07/05 12:33:29;;;;;;;8.25;3.30;;;;;;;19.07;100.00;-18540.16;5079904;28;20039;-76
2023/07/05 12:36:03;;;;;;;5.45;2.72;;;;;;;19.14;100.00;-18542.06;5083175;28;20113;-79
2023/07/05 12:38:28;;;;;;;8.20;3.42;;;;;;;19.09;100.00;-18540.72;5099439;28;20044;-80
2023/07/05 12:40:55;;;;;;;6.93;3.50;;;;;;;19.00;100.00;-18538.25;5083639;28;20059;-79
2023/07/05 12:43:28;;;;;;;7.95;4.07;;;;;;;18.91;100.00;-18535.94;5079367;28;20093;-79
2023/07/05 12:46:07;;;;;;;9.25;4.20;;;;;;;18.81;100.00;-18533.22;5084999;28;20040;-77
2023/07/05 12:48:33;;;;;;;9.40;4.20;;;;;;;18.68;100.00;-18529.66;5052679;28;20044;-80
2023/07/05 12:51:10;;;;;;;8.38;4.50;;;;;;;18.64;100.00;-18528.72;5086893;28;20056;-80
2023/07/05 12:53:37;;;;;;;7.68;3.90;;;;;;;18.50;100.00;-18524.91;5066352;28;20157;-80
2023/07/05 12:56:16;;;;;;;6.93;3.65;;;;;;;18.47;100.00;-18524.22;5067154;28;20039;-77
2023/07/05 12:58:57;;;;;;;7.55;3.83;;;;;;;18.42;100.00;-18522.84;5083701;28;20066;-81
2023/07/05 13:01:30;;;;;;;9.18;3.45;;;;;;;18.33;100.00;-18520.25;5085425;28;20574;-80
2023/07/05 13:03:55;;;;;;;6.85;3.67;;;;;;;18.34;100.00;-18520.53;5082385;28;20048;-79
2023/07/05 13:06:21;;;;;;;7.88;3.53;;;;;;;18.37;100.00;-18521.47;5082682;28;20483;-79
2023/07/05 13:08:49;;;;;;;6.65;3.45;;;;;;;18.39;100.00;-18521.91;5067883;28;20074;-80
2023/07/05 13:11:17;;;;;;;5.07;2.88;;;;;;;18.27;100.00;-18518.91;5081043;28;20048;-80
2023/07/05 13:13:42;;;;;;;6.25;2.95;;;;;;;18.26;100.00;-18518.47;5083593;28;20062;-80
2023/07/05 13:16:23;;;;;;;9.15;3.55;;;;;;;18.08;100.00;-18513.72;5088253;28;20103;-78
2023/07/05 13:19:08;;;;;;;6.15;2.92;;;;;;;18.00;100.00;-18511.53;5087658;28;20043;-78
2023/07/05 13:21:37;;;;;;;6.03;3.08;;;;;;;17.95;100.00;-18510.16;5035248;28;20451;-78
2023/07/05 13:24:06;;;;;;;7.72;3.38;;;;;;;17.87;100.00;-18508.13;5083965;28;20047;-80
2023/07/05 13:26:36;;;;;;;5.63;2.97;;;;;;;17.82;100.00;-18506.75;5087763;28;20074;-79
2023/07/05 13:29:32;;;;;;;7.78;3.80;;;;;;;18.17;100.00;-18516.16;5085935;28;20035;-77
2023/07/05 13:31:58;;;;;;;6.25;3.58;;;;;;;18.32;100.00;-18520.13;5086652;28;20051;-79
2023/07/05 13:34:25;;;;;;;7.70;3.60;;;;;;;18.18;100.00;-18516.31;5082528;28;20055;-78
2023/07/05 13:37:07;;;;;;;8.15;4.10;;;;;;;18.24;100.00;-18518.06;5085322;28;20036;-78
2023/07/05 13:39:32;;;;;;;5.60;3.17;;;;;;;18.21;100.00;-18517.13;5067714;28;20048;-78